Time;durP1;ratioP1;P1;durP2;ratioP2;P2;SDS_P1;SDS_P2;PMS_P1;PMS_P2;Temp;Humidity;BMP_temperature;BMP_pressure;BME280_temperature;BME280_humidity;BME280_pressure;Samples;Min_cycle;Max_cycle;Signal;HPM_P1;HPM_P2
2021/10/11 00:00:24;;;;;;;16.58;7.75;;;7.30;96.70;;;;;;5096066;28;20063;-91
2021/10/11 00:02:49;;;;;;;13.05;7.03;;;7.30;96.50;;;;;;5096856;28;20031;-91
2021/10/11 00:05:16;;;;;;;14.15;7.35;;;7.20;96.70;;;;;;5097504;28;20028;-91
2021/10/11 00:07:42;;;;;;;15.35;7.97;;;7.20;96.70;;;;;;5095813;28;20104;-90
2021/10/11 00:10:08;;;;;;;14.95;7.47;;;7.10;96.80;;;;;;5096577;28;20028;-92
2021/10/11 00:12:35;;;;;;;15.45;7.32;;;7.10;96.90;;;;;;5095618;28;20024;-91
2021/10/11 00:15:01;;;;;;;12.90;6.78;;;7.10;96.80;;;;;;5096195;28;20032;-90
2021/10/11 00:17:27;;;;;;;14.98;7.70;;;7.10;96.90;;;;;;5095421;28;20060;-90
2021/10/11 00:19:53;;;;;;;16.02;7.70;;;7.20;96.90;;;;;;5096053;28;20028;-91
2021/10/11 00:22:20;;;;;;;18.23;7.72;;;7.20;96.70;;;;;;5096072;28;20069;-89
2021/10/11 00:24:46;;;;;;;13.97;7.73;;;7.20;96.80;;;;;;5095475;28;20462;-89
2021/10/11 00:27:12;;;;;;;15.00;7.53;;;7.20;96.60;;;;;;5096069;28;20081;-89
2021/10/11 00:29:38;;;;;;;13.65;7.63;;;7.20;96.50;;;;;;5095630;28;20024;-89
2021/10/11 00:32:04;;;;;;;13.40;7.85;;;7.20;96.60;;;;;;5096159;28;20381;-89
2021/10/11 00:34:30;;;;;;;11.40;6.73;;;7.10;96.50;;;;;;5095618;28;20063;-89
2021/10/11 00:36:56;;;;;;;14.10;7.50;;;7.20;96.70;;;;;;5096085;28;20036;-89
2021/10/11 00:39:22;;;;;;;13.52;7.10;;;7.20;96.80;;;;;;5095889;28;20095;-89
2021/10/11 00:41:48;;;;;;;13.50;7.10;;;7.10;96.70;;;;;;5095868;28;20032;-89
2021/10/11 00:44:14;;;;;;;11.25;6.85;;;7.10;96.70;;;;;;5095884;28;20024;-89
2021/10/11 00:46:40;;;;;;;12.50;7.13;;;7.10;96.70;;;;;;5096133;28;20036;-89
2021/10/11 00:49:05;;;;;;;13.35;7.32;;;7.10;96.60;;;;;;5096575;28;20104;-89
2021/10/11 00:51:31;;;;;;;13.63;6.80;;;7.00;96.70;;;;;;5094483;28;20480;-90
2021/10/11 00:53:58;;;;;;;12.73;7.63;;;7.00;96.80;;;;;;5095692;28;20032;-89
2021/10/11 00:56:24;;;;;;;15.57;7.30;;;7.00;96.70;;;;;;5095037;28;20044;-84
2021/10/11 00:58:50;;;;;;;11.82;7.15;;;7.00;96.80;;;;;;5096535;28;20024;-86
2021/10/11 01:01:16;;;;;;;12.63;7.15;;;7.00;96.60;;;;;;5095551;28;20119;-86
2021/10/11 01:03:41;;;;;;;12.93;7.27;;;7.00;96.60;;;;;;5095733;28;20031;-87
2021/10/11 01:06:07;;;;;;;12.65;6.50;;;6.90;96.30;;;;;;5095370;28;20036;-87
2021/10/11 01:08:33;;;;;;;11.13;6.82;;;6.90;96.10;;;;;;5094417;28;20035;-87
2021/10/11 01:11:00;;;;;;;12.33;7.27;;;6.80;96.20;;;;;;5095172;28;20031;-86
2021/10/11 01:13:26;;;;;;;13.43;7.13;;;6.70;96.40;;;;;;5095671;28;20017;-86
2021/10/11 01:15:51;;;;;;;14.63;7.33;;;6.70;96.40;;;;;;5095123;28;20383;-87
2021/10/11 01:18:17;;;;;;;12.90;6.87;;;6.70;96.20;;;;;;5095247;28;20110;-87
2021/10/11 01:20:43;;;;;;;13.23;6.93;;;6.70;96.10;;;;;;5094857;28;20514;-87
2021/10/11 01:23:09;;;;;;;12.20;7.03;;;6.70;96.00;;;;;;5095031;28;20020;-86
2021/10/11 01:25:35;;;;;;;11.67;7.20;;;6.50;96.50;;;;;;5095328;28;20030;-86
2021/10/11 01:28:00;;;;;;;11.60;6.83;;;6.40;96.30;;;;;;5094997;28;20028;-86
2021/10/11 01:30:26;;;;;;;12.53;7.13;;;6.40;96.50;;;;;;5094430;28;20024;-84
2021/10/11 01:32:52;;;;;;;11.00;6.47;;;6.40;96.50;;;;;;5095727;28;20024;-86
2021/10/11 01:35:18;;;;;;;12.93;7.00;;;6.30;96.60;;;;;;5094616;28;20381;-86
2021/10/11 01:37:44;;;;;;;15.63;7.17;;;6.30;96.60;;;;;;5094278;28;20024;-86
2021/10/11 01:40:10;;;;;;;11.33;6.80;;;6.30;96.40;;;;;;5095019;28;20043;-86
2021/10/11 01:42:36;;;;;;;10.00;6.67;;;6.20;96.20;;;;;;5093928;28;20165;-86
2021/10/11 01:45:03;;;;;;;9.17;5.90;;;6.10;96.50;;;;;;5094813;28;20058;-86
2021/10/11 01:47:29;;;;;;;12.20;6.80;;;6.20;96.40;;;;;;5094126;28;20524;-85
2021/10/11 01:49:55;;;;;;;11.43;6.57;;;6.20;96.20;;;;;;5094377;28;20113;-88
2021/10/11 01:52:23;;;;;;;10.23;5.90;;;6.10;96.30;;;;;;5094432;28;20024;-88
2021/10/11 01:54:49;;;;;;;10.67;6.50;;;6.10;96.40;;;;;;5093959;28;20035;-87
2021/10/11 01:57:16;;;;;;;13.70;6.80;;;6.00;96.70;;;;;;5094205;28;20048;-87
2021/10/11 01:59:41;;;;;;;11.57;6.17;;;5.90;96.70;;;;;;5093827;28;20073;-87
2021/10/11 02:02:07;;;;;;;11.90;5.93;;;5.90;96.80;;;;;;5093051;28;20024;-87
2021/10/11 02:04:32;;;;;;;12.70;6.60;;;5.90;96.90;;;;;;5094926;28;20031;-86
2021/10/11 02:06:58;;;;;;;14.80;6.67;;;5.90;97.00;;;;;;5094358;28;20100;-87
2021/10/11 02:09:24;;;;;;;11.87;6.43;;;5.90;97.00;;;;;;5094110;28;20024;-87
2021/10/11 02:11:50;;;;;;;12.27;6.60;;;5.90;96.90;;;;;;5093407;28;20031;-87
2021/10/11 02:14:16;;;;;;;12.07;6.43;;;5.80;97.00;;;;;;5094176;28;20045;-87
2021/10/11 02:16:42;;;;;;;11.77;6.77;;;5.80;97.10;;;;;;5093320;28;20066;-87
2021/10/11 02:19:07;;;;;;;12.73;6.90;;;5.70;97.00;;;;;;5094126;28;20040;-87
2021/10/11 02:21:33;;;;;;;13.63;6.90;;;5.70;97.20;;;;;;5094608;28;20024;-86
2021/10/11 02:23:58;;;;;;;12.07;6.67;;;5.80;97.30;;;;;;5093548;28;20114;-86
2021/10/11 02:26:24;;;;;;;11.90;6.23;;;5.80;97.20;;;;;;5093989;28;20118;-86
2021/10/11 02:28:53;;;;;;;13.17;6.50;;;5.80;97.00;;;;;;5093365;28;20032;-86
2021/10/11 02:31:19;;;;;;;12.90;6.80;;;5.90;96.90;;;;;;5093916;28;20050;-85
2021/10/11 02:33:45;;;;;;;13.67;6.23;;;5.80;96.50;;;;;;5093083;28;20024;-91
2021/10/11 02:36:11;;;;;;;14.17;7.37;;;5.80;96.50;;;;;;5093812;28;20036;-91
2021/10/11 02:38:37;;;;;;;14.30;6.13;;;5.70;96.60;;;;;;5093073;28;20023;-91
2021/10/11 02:41:03;;;;;;;12.10;6.53;;;5.70;96.90;;;;;;5094524;28;20035;-91
2021/10/11 02:43:29;;;;;;;12.20;6.50;;;5.70;97.00;;;;;;5093491;28;20032;-90
2021/10/11 02:45:54;;;;;;;11.40;6.00;;;5.60;97.20;;;;;;5093149;28;20024;-90
2021/10/11 02:48:20;;;;;;;12.50;5.87;;;5.70;97.30;;;;;;5093541;28;20469;-86
2021/10/11 02:50:46;;;;;;;15.63;7.00;;;5.70;97.20;;;;;;5093099;28;20115;-86
2021/10/11 02:53:11;;;;;;;14.47;7.17;;;5.70;97.30;;;;;;5093732;28;20028;-87
2021/10/11 02:55:37;;;;;;;12.80;6.67;;;5.70;97.40;;;;;;5092813;28;20544;-88
2021/10/11 02:58:03;;;;;;;14.73;6.63;;;5.70;97.60;;;;;;5094290;28;20089;-87
2021/10/11 03:00:28;;;;;;;13.23;6.63;;;5.80;97.70;;;;;;5093265;28;20031;-88
2021/10/11 03:02:54;;;;;;;11.67;6.80;;;5.80;97.80;;;;;;5092785;28;20028;-87
2021/10/11 03:05:19;;;;;;;11.60;6.43;;;5.80;97.10;;;;;;5094288;28;20073;-88
2021/10/11 03:07:45;;;;;;;11.90;6.17;;;5.80;97.00;;;;;;5092947;28;20050;-88
2021/10/11 03:10:11;;;;;;;10.43;6.00;;;5.80;97.30;;;;;;5093375;28;20028;-88
2021/10/11 03:12:36;;;;;;;13.13;6.60;;;5.80;96.90;;;;;;5093733;28;20047;-87
2021/10/11 03:15:06;;;;;;;12.67;6.57;;;5.80;96.70;;;;;;5098873;28;20097;-88
2021/10/11 03:17:32;;;;;;;12.50;6.90;;;5.60;96.80;;;;;;5097540;28;20032;-84
2021/10/11 03:19:58;;;;;;;13.47;6.57;;;5.60;97.40;;;;;;5097630;28;20520;-87
2021/10/11 03:22:23;;;;;;;11.97;6.67;;;5.60;98.00;;;;;;5097561;28;20484;-88
2021/10/11 03:24:49;;;;;;;12.20;6.50;;;5.60;98.00;;;;;;5097120;28;20028;-88
2021/10/11 03:27:15;;;;;;;12.80;6.60;;;5.70;98.20;;;;;;5097502;28;20028;-88
2021/10/11 03:29:40;;;;;;;12.03;6.57;;;5.80;98.20;;;;;;5096855;28;20551;-88
2021/10/11 03:32:06;;;;;;;13.73;6.83;;;5.80;98.10;;;;;;5097313;28;20111;-87
2021/10/11 03:34:32;;;;;;;12.63;6.30;;;5.90;97.90;;;;;;5096855;28;20039;-88
2021/10/11 03:36:58;;;;;;;13.30;7.03;;;5.90;98.10;;;;;;5096715;28;20131;-87
2021/10/11 03:39:23;;;;;;;12.93;6.60;;;5.90;98.00;;;;;;5098046;28;20445;-88
2021/10/11 03:41:49;;;;;;;11.80;6.70;;;5.90;97.70;;;;;;5096768;28;20073;-90
2021/10/11 03:44:14;;;;;;;13.03;6.30;;;5.80;97.60;;;;;;5097018;28;20028;-89
2021/10/11 03:46:40;;;;;;;11.20;6.50;;;5.90;98.00;;;;;;5096507;28;20031;-87
2021/10/11 03:49:06;;;;;;;12.70;6.13;;;5.90;97.70;;;;;;5096771;28;20475;-87
2021/10/11 03:51:32;;;;;;;11.63;7.03;;;6.00;97.60;;;;;;5097023;28;20056;-89
2021/10/11 03:53:58;;;;;;;11.47;6.40;;;6.00;97.40;;;;;;5097214;28;20028;-89
2021/10/11 03:56:24;;;;;;;14.83;7.37;;;6.00;97.30;;;;;;5097365;28;20090;-89
2021/10/11 03:58:50;;;;;;;18.33;7.97;;;6.00;97.50;;;;;;5096195;28;20028;-88
2021/10/11 04:01:15;;;;;;;15.03;6.53;;;6.00;98.40;;;;;;5096914;28;20461;-89
2021/10/11 04:03:42;;;;;;;12.00;6.80;;;5.90;98.70;;;;;;5097254;28;20028;-88
2021/10/11 04:06:08;;;;;;;13.40;7.03;;;6.00;98.10;;;;;;5096582;28;20032;-88
2021/10/11 04:08:36;;;;;;;12.77;6.90;;;6.00;98.00;;;;;;5096504;28;20050;-89
2021/10/11 04:13:27;;;;;;;17.23;7.03;;;5.80;97.20;;;;;;5097430;28;20073;-89
2021/10/11 04:15:53;;;;;;;17.60;8.00;;;5.70;97.70;;;;;;5095973;28;20021;-89
2021/10/11 04:18:19;;;;;;;18.70;7.73;;;5.60;98.10;;;;;;5096035;28;20495;-89
2021/10/11 04:20:45;;;;;;;20.07;8.10;;;5.60;98.30;;;;;;5095848;28;20024;-89
2021/10/11 04:23:12;;;;;;;19.17;7.20;;;5.60;98.20;;;;;;5096145;28;20078;-88
2021/10/11 04:25:38;;;;;;;14.67;7.60;;;5.50;98.00;;;;;;5095792;28;20032;-85
2021/10/11 04:28:04;;;;;;;15.70;7.67;;;5.40;98.00;;;;;;5096100;28;20380;-86
2021/10/11 04:30:30;;;;;;;17.47;7.50;;;5.40;98.10;;;;;;5095832;28;20028;-87
2021/10/11 04:32:56;;;;;;;11.70;6.53;;;5.30;98.00;;;;;;5096674;28;20020;-86
2021/10/11 04:35:22;;;;;;;15.00;7.20;;;5.30;97.90;;;;;;5096035;28;20393;-93
2021/10/11 04:37:51;;;;;;;15.13;7.53;;;5.30;97.90;;;;;;5095315;28;20024;-91
2021/10/11 04:40:18;;;;;;;13.77;6.70;;;5.30;97.80;;;;;;5096946;28;20052;-91
2021/10/11 04:42:43;;;;;;;10.47;6.17;;;5.30;97.90;;;;;;5095297;28;20114;-84
2021/10/11 04:45:10;;;;;;;12.23;7.00;;;5.30;97.90;;;;;;5096752;28;20492;-85
2021/10/11 04:47:36;;;;;;;14.00;7.13;;;5.30;98.10;;;;;;5096661;28;20032;-85
2021/10/11 04:50:02;;;;;;;12.77;6.70;;;5.30;98.00;;;;;;5095346;28;20027;-86
2021/10/11 04:52:28;;;;;;;10.50;6.33;;;5.30;98.10;;;;;;5095773;28;20020;-85
2021/10/11 04:54:53;;;;;;;11.80;6.63;;;5.30;98.20;;;;;;5095994;28;20405;-85
2021/10/11 04:57:19;;;;;;;10.27;6.37;;;5.40;98.30;;;;;;5095035;28;20488;-85
2021/10/11 04:59:45;;;;;;;13.60;7.07;;;5.40;98.30;;;;;;5095256;28;20027;-89
2021/10/11 05:02:10;;;;;;;10.73;6.50;;;5.40;98.30;;;;;;5096211;28;20031;-87
2021/10/11 05:04:36;;;;;;;13.67;6.50;;;5.40;98.40;;;;;;5095164;28;20020;-87
2021/10/11 05:07:01;;;;;;;11.30;6.33;;;5.40;97.90;;;;;;5095807;28;20028;-88
2021/10/11 05:09:27;;;;;;;10.70;5.73;;;5.30;97.70;;;;;;5096589;28;20028;-88
2021/10/11 05:11:52;;;;;;;12.13;6.30;;;5.30;97.80;;;;;;5094729;28;20028;-88
2021/10/11 05:14:18;;;;;;;11.33;6.33;;;5.40;97.80;;;;;;5096042;28;20035;-89
2021/10/11 05:16:44;;;;;;;12.77;7.20;;;5.50;98.10;;;;;;5094649;28;20028;-88
2021/10/11 05:19:10;;;;;;;11.87;6.87;;;5.60;98.30;;;;;;5094984;28;20460;-88
2021/10/11 05:21:36;;;;;;;11.93;7.20;;;5.70;98.50;;;;;;5095091;28;20031;-86
2021/10/11 05:24:02;;;;;;;11.83;7.10;;;5.70;98.60;;;;;;5094376;28;20115;-85
2021/10/11 05:26:29;;;;;;;11.33;6.60;;;5.70;98.60;;;;;;5094993;28;20492;-86
2021/10/11 05:28:55;;;;;;;13.67;6.83;;;5.70;98.70;;;;;;5094338;28;20066;-85
2021/10/11 05:31:20;;;;;;;12.57;6.90;;;5.80;98.70;;;;;;5094655;28;20028;-87
2021/10/11 05:33:46;;;;;;;16.53;7.10;;;5.70;98.70;;;;;;5094064;28;20077;-86
2021/10/11 05:36:12;;;;;;;13.23;6.93;;;5.70;98.70;;;;;;5094649;28;20036;-86
2021/10/11 05:38:37;;;;;;;14.57;6.90;;;5.70;98.80;;;;;;5095820;28;20030;-87
2021/10/11 05:41:03;;;;;;;14.83;6.50;;;5.70;98.70;;;;;;5095297;28;20028;-86
2021/10/11 05:43:28;;;;;;;12.80;6.83;;;5.70;98.60;;;;;;5094440;28;20024;-92
2021/10/11 05:45:54;;;;;;;11.40;5.97;;;5.50;98.60;;;;;;5094041;28;20036;-92
2021/10/11 05:48:20;;;;;;;11.97;6.63;;;5.50;98.80;;;;;;5095015;28;20096;-92
2021/10/11 05:50:46;;;;;;;11.87;6.50;;;5.50;98.80;;;;;;5095027;28;20416;-93
2021/10/11 05:53:12;;;;;;;12.23;6.73;;;5.50;98.80;;;;;;5094507;28;20052;-92
2021/10/11 05:55:38;;;;;;;11.33;5.80;;;5.40;99.10;;;;;;5094393;28;20149;-92
2021/10/11 05:58:03;;;;;;;13.67;6.90;;;5.50;99.20;;;;;;5093571;28;20048;-92
2021/10/11 06:00:29;;;;;;;12.70;6.50;;;5.50;99.00;;;;;;5095344;28;20020;-92
2021/10/11 06:02:55;;;;;;;15.13;8.13;;;5.60;99.10;;;;;;5093998;28;20024;-89
2021/10/11 06:05:21;;;;;;;17.33;8.87;;;5.70;99.00;;;;;;5094287;28;20032;-89
2021/10/11 06:07:46;;;;;;;13.00;7.50;;;5.80;98.90;;;;;;5093703;28;20218;-89
2021/10/11 06:10:12;;;;;;;12.07;6.97;;;5.70;99.00;;;;;;5093998;28;20035;-88
2021/10/11 06:12:37;;;;;;;14.50;6.83;;;5.80;98.70;;;;;;5094036;28;20366;-85
2021/10/11 06:15:04;;;;;;;12.13;7.10;;;5.70;98.80;;;;;;5093646;28;20056;-88
2021/10/11 06:17:29;;;;;;;12.60;6.73;;;5.70;98.80;;;;;;5093982;28;20028;-86
2021/10/11 06:19:55;;;;;;;15.93;7.73;;;5.80;99.10;;;;;;5100013;28;20126;-85
2021/10/11 06:22:21;;;;;;;15.90;7.30;;;5.70;98.80;;;;;;5105783;28;20036;-86
2021/10/11 06:24:46;;;;;;;13.47;7.60;;;5.70;99.00;;;;;;5093361;28;20028;-85
2021/10/11 06:27:12;;;;;;;16.23;7.97;;;5.70;99.00;;;;;;5094660;28;20035;-87
2021/10/11 06:29:38;;;;;;;19.13;8.87;;;5.70;99.10;;;;;;5093999;28;20050;-90
2021/10/11 06:32:04;;;;;;;17.60;8.70;;;5.70;99.30;;;;;;5093156;28;20028;-87
2021/10/11 06:34:30;;;;;;;14.90;8.00;;;5.70;99.60;;;;;;5094208;28;20024;-85
2021/10/11 06:36:56;;;;;;;17.30;9.63;;;5.80;99.70;;;;;;5099508;28;20110;-87
2021/10/11 06:39:21;;;;;;;16.40;8.60;;;5.80;99.80;;;;;;5092898;28;20020;-87
2021/10/11 06:41:47;;;;;;;14.37;8.37;;;5.80;99.90;;;;;;5092799;28;20361;-84
2021/10/11 06:44:12;;;;;;;17.37;8.37;;;5.80;99.90;;;;;;5092448;28;20047;-89
2021/10/11 06:46:38;;;;;;;16.37;8.83;;;5.80;99.90;;;;;;5093165;28;20184;-90
2021/10/11 06:49:04;;;;;;;13.03;7.90;;;5.90;99.90;;;;;;5092629;28;20498;-87
2021/10/11 06:51:29;;;;;;;14.50;8.23;;;5.90;99.90;;;;;;5093498;28;20020;-86
2021/10/11 06:53:55;;;;;;;15.90;8.23;;;6.00;99.90;;;;;;5092798;28;20520;-90
2021/10/11 06:56:21;;;;;;;14.33;7.50;;;6.00;99.90;;;;;;5093890;28;20087;-90
2021/10/11 06:58:46;;;;;;;13.70;7.77;;;6.10;99.90;;;;;;5092963;28;20028;-84
2021/10/11 07:01:13;;;;;;;16.27;8.73;;;6.10;99.90;;;;;;5092835;28;20055;-89
2021/10/11 07:03:39;;;;;;;14.73;8.03;;;6.20;99.80;;;;;;5093069;28;20032;-91
2021/10/11 07:06:14;;;;;;;17.80;8.63;;;6.30;99.80;;;;;;5080099;28;20115;-90
2021/10/11 07:08:40;;;;;;;14.73;8.43;;;6.30;99.80;;;;;;5073229;28;20364;-90
2021/10/11 07:11:08;;;;;;;16.07;8.50;;;6.40;99.80;;;;;;5072534;28;20140;-88
2021/10/11 07:13:34;;;;;;;15.63;8.63;;;6.50;99.90;;;;;;5075899;28;20119;-87
2021/10/11 07:16:03;;;;;;;17.10;9.53;;;6.50;99.80;;;;;;5092365;28;20035;-85
2021/10/11 07:18:30;;;;;;;17.97;9.43;;;6.60;99.80;;;;;;5092649;28;20043;-84
2021/10/11 07:20:55;;;;;;;19.77;10.27;;;6.60;99.80;;;;;;5092205;28;20043;-86
2021/10/11 07:23:21;;;;;;;20.63;10.00;;;6.60;99.80;;;;;;5092014;28;20469;-86
2021/10/11 07:25:47;;;;;;;22.23;11.37;;;6.80;99.80;;;;;;5093652;28;20518;-86
2021/10/11 07:28:12;;;;;;;22.70;11.00;;;6.80;99.80;;;;;;5091929;28;20531;-86
2021/10/11 07:30:38;;;;;;;23.57;11.40;;;6.80;99.80;;;;;;5092219;28;20035;-85
2021/10/11 07:33:07;;;;;;;26.40;12.13;;;6.90;99.80;;;;;;5091864;28;20381;-85
2021/10/11 07:35:33;;;;;;;27.33;12.73;;;6.90;99.90;;;;;;5092333;28;20032;-89
2021/10/11 07:37:59;;;;;;;28.07;11.87;;;7.00;99.90;;;;;;5091479;28;20032;-88
2021/10/11 07:40:25;;;;;;;25.77;11.87;;;7.00;99.90;;;;;;5092005;28;20086;-89
2021/10/11 07:42:51;;;;;;;23.03;11.73;;;7.00;99.90;;;;;;5093089;28;20465;-84
2021/10/11 07:45:17;;;;;;;21.33;10.73;;;7.00;99.90;;;;;;5092134;28;20063;-87
2021/10/11 07:47:43;;;;;;;20.57;10.83;;;7.00;99.90;;;;;;5092283;28;20054;-86
2021/10/11 07:50:11;;;;;;;26.03;11.93;;;7.10;99.90;;;;;;5091738;28;20081;-88
2021/10/11 07:52:37;;;;;;;28.00;12.50;;;7.20;99.90;;;;;;5092398;28;20024;-87
2021/10/11 07:55:04;;;;;;;23.63;11.73;;;7.30;99.80;;;;;;5091835;28;20077;-87
2021/10/11 07:57:33;;;;;;;24.30;12.07;;;7.30;99.90;;;;;;5077947;28;20052;-91
2021/10/11 07:59:59;;;;;;;28.90;12.67;;;7.40;99.90;;;;;;5095463;28;20063;-91
2021/10/11 08:02:25;;;;;;;28.03;14.43;;;7.40;99.90;;;;;;5096617;28;20024;-90
2021/10/11 08:04:51;;;;;;;25.13;13.80;;;7.50;99.90;;;;;;5096153;28;20043;-86
2021/10/11 08:07:16;;;;;;;31.87;14.37;;;7.50;99.90;;;;;;5095585;28;20392;-87
2021/10/11 08:09:42;;;;;;;34.03;15.15;;;7.60;99.90;;;;;;5096239;28;20031;-87
2021/10/11 08:12:09;;;;;;;32.70;15.57;;;7.60;99.90;;;;;;5095242;28;20388;-89
2021/10/11 08:14:35;;;;;;;35.38;15.95;;;7.70;99.90;;;;;;5096065;28;20028;-85
2021/10/11 08:17:01;;;;;;;27.90;14.33;;;7.80;99.90;;;;;;5094775;28;20036;-91
2021/10/11 08:19:27;;;;;;;34.67;16.02;;;7.80;99.90;;;;;;5095019;28;20377;-85
2021/10/11 08:21:53;;;;;;;35.47;15.40;;;7.90;99.90;;;;;;5095611;28;20099;-86
2021/10/11 08:24:18;;;;;;;35.38;16.85;;;8.00;99.80;;;;;;5094462;28;20024;-84
2021/10/11 08:26:44;;;;;;;32.58;15.82;;;8.00;99.90;;;;;;5095483;28;20085;-85
2021/10/11 08:29:10;;;;;;;30.77;15.68;;;8.10;99.80;;;;;;5095127;28;20107;-91
2021/10/11 08:31:36;;;;;;;27.70;13.88;;;8.10;99.80;;;;;;5096779;28;20024;-92
2021/10/11 08:34:02;;;;;;;27.05;14.63;;;8.20;99.80;;;;;;5094835;28;20024;-88
2021/10/11 08:36:28;;;;;;;28.38;15.18;;;8.20;99.60;;;;;;5095843;28;20038;-89
2021/10/11 08:38:54;;;;;;;27.98;15.63;;;8.30;99.80;;;;;;5096091;28;20056;-86
2021/10/11 08:41:20;;;;;;;29.45;15.43;;;8.30;99.70;;;;;;5095698;28;20032;-88
2021/10/11 08:43:46;;;;;;;30.63;15.73;;;8.30;99.60;;;;;;5095998;28;20026;-88
2021/10/11 08:46:12;;;;;;;32.90;15.90;;;8.40;99.60;;;;;;5094589;28;20028;-89
2021/10/11 08:48:38;;;;;;;29.48;15.15;;;8.40;99.50;;;;;;5095453;28;20469;-87
2021/10/11 08:51:05;;;;;;;25.45;14.50;;;8.40;99.40;;;;;;5094850;28;20035;-89
2021/10/11 08:53:31;;;;;;;27.27;13.57;;;8.40;99.50;;;;;;5095376;28;20040;-86
2021/10/11 08:55:57;;;;;;;27.50;14.07;;;8.50;99.50;;;;;;5094157;28;20511;-85
2021/10/11 08:58:22;;;;;;;26.60;14.30;;;8.50;99.30;;;;;;5094827;28;20077;-86
2021/10/11 09:00:48;;;;;;;26.00;14.20;;;8.60;99.30;;;;;;5095356;28;20028;-86
2021/10/11 09:03:19;;;;;;;24.77;14.32;;;8.60;99.20;;;;;;5094920;28;20524;-83
2021/10/11 09:05:47;;;;;;;28.65;14.38;;;8.70;99.00;;;;;;5089647;28;20057;-84
2021/10/11 09:08:16;;;;;;;24.70;13.82;;;8.80;98.80;;;;;;5095545;28;20577;-85
2021/10/11 09:10:52;;;;;;;30.10;14.15;;;8.80;98.70;;;;;;5094196;28;20028;-84
2021/10/11 09:13:20;;;;;;;29.40;14.90;;;8.90;98.80;;;;;;5112966;27;20138;-86
2021/10/11 09:15:50;;;;;;;27.85;14.50;;;9.10;98.50;;;;;;5089927;28;20028;-87
2021/10/11 09:18:29;;;;;;;25.67;13.73;;;9.10;98.30;;;;;;5094551;28;20028;-89
2021/10/11 09:20:55;;;;;;;27.75;14.63;;;9.20;98.10;;;;;;5094856;28;20457;-85
2021/10/11 09:23:23;;;;;;;24.15;14.18;;;9.30;98.10;;;;;;5094970;28;20473;-89
2021/10/11 09:25:50;;;;;;;25.70;14.70;;;9.40;98.20;;;;;;5094868;28;20020;-89
2021/10/11 09:28:19;;;;;;;22.02;13.25;;;9.50;97.90;;;;;;5094185;28;20032;-85
2021/10/11 09:30:48;;;;;;;27.05;14.50;;;9.40;97.70;;;;;;5098826;28;20024;-86
2021/10/11 09:33:22;;;;;;;26.23;13.10;;;9.50;97.80;;;;;;5094997;28;20096;-89
2021/10/11 09:35:50;;;;;;;28.98;15.05;;;9.50;97.90;;;;;;5094741;28;20032;-89
2021/10/11 09:38:28;;;;;;;28.95;14.07;;;9.50;98.00;;;;;;5094201;28;20082;-90
2021/10/11 09:40:56;;;;;;;26.23;14.38;;;9.50;97.90;;;;;;5095498;28;20024;-88
2021/10/11 09:43:25;;;;;;;27.85;14.48;;;9.60;97.70;;;;;;5094511;28;20027;-86
2021/10/11 09:45:52;;;;;;;26.48;14.30;;;9.70;97.50;;;;;;5095532;28;20036;-84
2021/10/11 09:48:18;;;;;;;27.00;14.23;;;9.80;97.30;;;;;;5092146;28;20110;-81
2021/10/11 09:50:45;;;;;;;30.10;14.32;;;10.00;97.20;;;;;;5094674;28;20024;-86
2021/10/11 09:53:14;;;;;;;24.40;13.35;;;9.90;96.90;;;;;;5093445;28;20063;-81
2021/10/11 09:55:41;;;;;;;26.02;13.90;;;10.00;97.10;;;;;;5094146;28;20027;-81
2021/10/11 09:58:11;;;;;;;29.80;14.88;;;10.00;97.10;;;;;;5092705;28;20052;-89
2021/10/11 10:00:46;;;;;;;27.40;14.15;;;10.10;97.30;;;;;;5097387;28;20081;-87
2021/10/11 10:03:14;;;;;;;26.23;14.63;;;10.20;97.20;;;;;;5093875;28;20036;-92
2021/10/11 10:05:45;;;;;;;28.58;14.32;;;10.20;97.00;;;;;;5094349;28;20114;-90
2021/10/11 10:08:15;;;;;;;31.73;14.80;;;10.30;96.80;;;;;;5093868;28;20085;-89
2021/10/11 10:10:43;;;;;;;29.58;14.57;;;10.30;96.60;;;;;;5094243;28;20054;-82
2021/10/11 10:13:19;;;;;;;23.83;14.23;;;10.50;96.50;;;;;;5093739;28;20093;-84
2021/10/11 10:15:46;;;;;;;30.92;14.75;;;10.60;96.30;;;;;;5094745;28;20365;-79
2021/10/11 10:18:17;;;;;;;25.77;14.27;;;10.70;96.10;;;;;;5091494;28;20089;-83
2021/10/11 10:20:55;;;;;;;24.65;13.68;;;10.80;95.90;;;;;;5073305;28;20033;-81
2021/10/11 10:23:44;;;;;;;22.85;13.27;;;10.90;95.90;;;;;;5111779;28;20414;-91
2021/10/11 10:26:13;;;;;;;23.13;12.98;;;11.00;95.60;;;;;;5103698;28;20024;-92
2021/10/11 10:28:53;;;;;;;25.00;13.65;;;10.90;95.30;;;;;;5093927;28;20491;-93
2021/10/11 10:31:35;;;;;;;23.05;12.82;;;11.00;95.30;;;;;;5093525;28;20062;-89
2021/10/11 10:34:11;;;;;;;27.75;12.35;;;11.00;95.40;;;;;;5093955;28;20038;-86
2021/10/11 10:36:42;;;;;;;25.63;12.82;;;11.10;95.30;;;;;;5093790;28;20067;-89
2021/10/11 10:39:09;;;;;;;23.50;12.85;;;11.30;95.20;;;;;;5094501;28;20024;-90
2021/10/11 10:41:36;;;;;;;24.88;13.85;;;11.50;95.20;;;;;;5108875;28;20016;-88
2021/10/11 10:44:18;;;;;;;32.45;13.55;;;11.70;94.90;;;;;;5103225;28;20028;-84
2021/10/11 10:46:52;;;;;;;22.05;12.93;;;11.90;94.40;;;;;;5109390;28;20031;-90
2021/10/11 10:49:36;;;;;;;23.95;13.05;;;12.00;94.20;;;;;;5092107;28;20578;-88
2021/10/11 10:52:12;;;;;;;24.52;12.35;;;12.10;94.00;;;;;;5100846;28;20027;-85
2021/10/11 10:54:43;;;;;;;23.10;13.02;;;12.20;94.20;;;;;;5104245;28;20422;-88
2021/10/11 10:57:13;;;;;;;27.02;13.30;;;12.20;94.00;;;;;;5097832;28;20109;-88
2021/10/11 10:59:38;;;;;;;26.02;12.70;;;12.30;93.90;;;;;;5100486;28;20024;-87
2021/10/11 11:02:09;;;;;;;22.70;12.65;;;12.40;93.40;;;;;;5093350;28;20028;-88
2021/10/11 11:04:35;;;;;;;25.67;13.32;;;12.50;93.20;;;;;;5093004;28;20028;-87
2021/10/11 11:07:07;;;;;;;23.15;13.18;;;12.50;93.40;;;;;;5095491;28;20040;-86
2021/10/11 11:09:40;;;;;;;;;;;12.50;92.80;;;;;;5111536;28;20022;-88
2021/10/11 11:12:06;;;;;;;18.20;10.88;;;12.50;92.40;;;;;;5091217;28;20010;-88
2021/10/11 11:14:33;;;;;;;24.10;13.55;;;12.50;92.80;;;;;;5094157;28;20059;-88
2021/10/11 11:16:58;;;;;;;26.33;12.95;;;12.60;92.70;;;;;;5092717;28;20031;-85
2021/10/11 11:19:35;;;;;;;25.77;12.73;;;12.60;92.60;;;;;;5096247;28;20076;-87
2021/10/11 11:22:00;;;;;;;20.25;11.48;;;12.60;92.80;;;;;;5096247;28;20119;-88
2021/10/11 11:24:26;;;;;;;21.95;11.63;;;12.60;92.70;;;;;;5098897;28;20082;-88
2021/10/11 11:26:52;;;;;;;24.42;11.68;;;12.60;92.80;;;;;;5106516;28;20601;-86
2021/10/11 11:29:17;;;;;;;21.63;11.60;;;12.50;92.60;;;;;;5092093;28;20056;-87
2021/10/11 11:31:53;;;;;;;27.02;11.45;;;12.50;93.00;;;;;;5112707;28;20015;-87
2021/10/11 11:34:19;;;;;;;22.83;11.65;;;12.40;92.90;;;;;;5099653;28;20036;-86
2021/10/11 11:36:55;;;;;;;19.88;10.43;;;12.50;93.00;;;;;;5096698;28;20583;-87
2021/10/11 11:39:25;;;;;;;21.35;10.88;;;12.50;92.90;;;;;;5108884;28;20096;-90
2021/10/11 11:41:54;;;;;;;24.40;11.55;;;12.50;92.90;;;;;;5107995;28;20024;-79
2021/10/11 11:44:26;;;;;;;19.27;10.75;;;12.40;92.80;;;;;;5106847;28;20023;-79
2021/10/11 11:47:06;;;;;;;21.88;11.32;;;12.40;93.10;;;;;;5104302;28;20024;-78
2021/10/11 11:49:35;;;;;;;21.40;11.85;;;12.40;93.10;;;;;;5104909;28;20027;-76
2021/10/11 11:52:12;;;;;;;24.67;11.52;;;12.40;93.30;;;;;;5095470;28;20101;-78
2021/10/11 11:54:39;;;;;;;20.35;10.50;;;12.40;93.00;;;;;;5095804;28;20056;-76
2021/10/11 11:57:06;;;;;;;18.30;9.80;;;12.40;93.10;;;;;;5094159;28;20055;-77
2021/10/11 11:59:32;;;;;;;19.55;11.15;;;12.40;93.40;;;;;;5099975;28;20027;-77
2021/10/11 12:02:01;;;;;;;21.70;10.75;;;12.40;93.60;;;;;;5115974;28;20399;-77
2021/10/11 12:04:28;;;;;;;21.85;10.88;;;12.40;93.70;;;;;;5109039;28;20123;-77
2021/10/11 12:06:54;;;;;;;19.70;11.02;;;12.50;93.80;;;;;;5095332;28;20039;-80
2021/10/11 12:09:23;;;;;;;21.58;11.10;;;12.50;93.60;;;;;;5096045;28;20350;-80
2021/10/11 12:12:00;;;;;;;19.73;10.30;;;12.50;93.50;;;;;;5096332;28;20028;-82
2021/10/11 12:14:26;;;;;;;22.48;11.27;;;12.60;93.10;;;;;;5095369;28;20115;-82
2021/10/11 12:17:08;;;;;;;23.52;12.32;;;12.70;93.10;;;;;;5090916;28;20032;-80
2021/10/11 12:19:38;;;;;;;21.58;11.13;;;12.70;92.90;;;;;;5075507;28;20519;-79
2021/10/11 12:22:05;;;;;;;21.52;11.60;;;12.80;93.00;;;;;;5074766;28;20040;-79
2021/10/11 12:24:32;;;;;;;22.90;11.88;;;12.80;93.00;;;;;;5105881;28;20020;-80
2021/10/11 12:27:04;;;;;;;23.52;11.65;;;12.80;93.00;;;;;;5111947;28;20043;-80
2021/10/11 12:29:32;;;;;;;22.02;10.93;;;12.80;93.10;;;;;;5099737;28;20488;-81
2021/10/11 12:32:00;;;;;;;22.70;11.95;;;12.80;93.20;;;;;;5108214;28;20016;-82
2021/10/11 12:34:34;;;;;;;20.80;11.40;;;12.80;93.10;;;;;;5100846;28;20035;-82
2021/10/11 12:37:03;;;;;;;21.38;12.13;;;12.80;93.20;;;;;;5111705;28;20035;-81
2021/10/11 12:39:35;;;;;;;22.73;12.68;;;12.70;93.40;;;;;;5099753;28;20094;-88
2021/10/11 12:42:01;;;;;;;22.00;12.85;;;12.60;93.40;;;;;;5106512;28;20118;-84